createdAt,value
2022-12-25T00:02:19.241Z,85.54
2022-12-25T00:04:48.058Z,86.42
2022-12-25T00:07:16.995Z,86.43
2022-12-25T00:09:45.884Z,85.65
2022-12-25T00:12:19.461Z,86.30
2022-12-25T00:14:48.571Z,85.72
2022-12-25T00:17:21.355Z,85.98
2022-12-25T00:19:53.151Z,86.33
2022-12-25T00:22:21.723Z,85.82
2022-12-25T00:24:50.570Z,86.18
2022-12-25T00:27:21.741Z,85.42
2022-12-25T00:29:53.194Z,85.28
2022-12-25T00:32:23.343Z,86.25
2022-12-25T00:34:56.737Z,85.81
2022-12-25T00:37:25.459Z,85.65
2022-12-25T00:39:54.159Z,86.15
2022-12-25T00:42:24.046Z,85.67
2022-12-25T00:44:56.149Z,86.31
2022-12-25T00:47:26.503Z,85.72
2022-12-25T00:50:00.858Z,85.67
2022-12-25T00:52:31.460Z,86.19
2022-12-25T00:55:02.469Z,86.41
2022-12-25T00:57:31.363Z,85.72
2022-12-25T01:00:00.052Z,86.04
2022-12-25T01:02:30.498Z,85.90
2022-12-25T01:04:59.294Z,85.79
2022-12-25T01:07:30.569Z,85.42
2022-12-25T01:10:17.318Z,85.02
2022-12-25T01:12:45.875Z,85.71
2022-12-25T01:15:15.745Z,85.45
2022-12-25T01:17:49.234Z,85.27
2022-12-25T01:20:19.487Z,85.47
2022-12-25T01:22:47.926Z,85.47
2022-12-25T01:25:16.242Z,85.69
2022-12-25T01:27:45.020Z,85.44
2022-12-25T01:30:14.263Z,85.49
2022-12-25T01:32:44.150Z,85.56
2022-12-25T01:35:12.656Z,85.66
2022-12-25T01:37:42.420Z,85.55
2022-12-25T01:40:11.737Z,85.62
2022-12-25T01:42:40.444Z,85.88
2022-12-25T01:45:39.963Z,85.65
2022-12-25T01:48:15.824Z,85.62
2022-12-25T01:50:49.132Z,86.20
2022-12-25T01:53:17.798Z,86.09
2022-12-25T01:55:49.559Z,85.75
2022-12-25T01:58:19.212Z,86.07
2022-12-25T02:00:48.090Z,86.20
2022-12-25T02:03:18.232Z,85.97
2022-12-25T02:05:48.608Z,85.79
2022-12-25T02:08:19.924Z,86.19
2022-12-25T02:10:48.715Z,85.40
2022-12-25T02:13:20.544Z,85.40
2022-12-25T02:16:01.649Z,86.03
2022-12-25T02:18:43.361Z,85.50
2022-12-25T02:21:33.815Z,85.57
2022-12-25T02:24:32.886Z,85.68
2022-12-25T02:27:17.328Z,85.61
2022-12-25T02:29:54.715Z,85.24
2022-12-25T02:32:30.454Z,85.52
2022-12-25T02:35:06.973Z,84.85
2022-12-25T02:37:43.456Z,84.59
2022-12-25T02:40:18.485Z,85.84
2022-12-25T02:43:12.162Z,85.17
2022-12-25T02:46:07.294Z,85.29
2022-12-25T02:48:58.671Z,85.53
2022-12-25T02:51:48.101Z,85.17
2022-12-25T02:54:39.320Z,84.99
2022-12-25T02:57:30.086Z,85.29
2022-12-25T03:00:20.361Z,85.66
2022-12-25T03:03:10.562Z,84.80
2022-12-25T03:06:01.004Z,85.76
2022-12-25T03:08:36.310Z,85.24
2022-12-25T03:11:25.712Z,85.61
2022-12-25T03:14:18.793Z,85.34
2022-12-25T03:16:51.224Z,84.90
2022-12-25T03:19:40.926Z,85.76
2022-12-25T03:22:30.701Z,85.45
2022-12-25T03:25:16.907Z,85.89
2022-12-25T03:27:50.369Z,85.37
2022-12-25T03:30:37.142Z,85.64
2022-12-25T03:33:43.376Z,85.15
2022-12-25T03:36:14.059Z,85.69
2022-12-25T03:39:08.313Z,85.30
2022-12-25T03:42:15.528Z,85.15
2022-12-25T03:45:20.703Z,85.16
2022-12-25T03:48:13.592Z,84.93
2022-12-25T03:51:05.317Z,84.68
2022-12-25T03:53:59.920Z,85.12
2022-12-25T03:56:49.214Z,85.31
2022-12-25T03:59:38.842Z,85.83
2022-12-25T04:02:24.800Z,85.50
2022-12-25T04:05:10.446Z,84.83
2022-12-25T04:07:56.540Z,84.83
2022-12-25T04:10:43.920Z,84.87
2022-12-25T04:13:30.142Z,85.59
2022-12-25T04:16:16.571Z,85.36
2022-12-25T04:19:02.569Z,85.17
2022-12-25T04:21:48.479Z,85.38
2022-12-25T04:24:34.056Z,85.36
2022-12-25T04:27:21.326Z,84.66
2022-12-25T04:30:18.604Z,84.68
2022-12-25T04:33:04.565Z,84.63
2022-12-25T04:35:50.517Z,85.13
2022-12-25T04:38:21.027Z,84.67
2022-12-25T04:40:49.603Z,84.50
2022-12-25T04:43:19.435Z,84.53
2022-12-25T04:45:54.755Z,84.58
2022-12-25T04:48:23.517Z,84.73
2022-12-25T04:50:52.035Z,84.65
2022-12-25T04:53:20.676Z,84.89
2022-12-25T04:55:49.078Z,84.71
2022-12-25T04:58:18.813Z,84.80
2022-12-25T05:00:47.177Z,85.27
2022-12-25T05:03:15.711Z,84.85
2022-12-25T05:05:44.158Z,84.88
2022-12-25T05:08:12.593Z,84.72
2022-12-25T05:10:41.960Z,85.07
2022-12-25T05:13:10.370Z,85.21
2022-12-25T05:15:42.872Z,85.20
2022-12-25T05:18:11.468Z,84.88
2022-12-25T05:20:40.605Z,85.73
2022-12-25T05:23:11.736Z,85.64
2022-12-25T05:25:41.305Z,84.91
2022-12-25T05:28:09.759Z,85.22
2022-12-25T05:30:38.120Z,85.25
2022-12-25T05:33:08.277Z,85.19
2022-12-25T05:35:38.495Z,85.16
2022-12-25T05:38:07.596Z,85.03
2022-12-25T05:40:39.390Z,84.67
2022-12-25T05:43:08.012Z,85.10
2022-12-25T05:45:36.601Z,85.18
2022-12-25T05:48:05.400Z,85.46
2022-12-25T05:50:37.631Z,85.25
2022-12-25T05:53:08.482Z,85.32
2022-12-25T05:55:37.591Z,85.24
2022-12-25T05:58:07.488Z,85.22
2022-12-25T06:00:36.332Z,84.99
2022-12-25T06:03:05.242Z,84.53
2022-12-25T06:05:35.125Z,85.19
2022-12-25T06:08:03.573Z,85.00
2022-12-25T06:10:31.969Z,85.38
2022-12-25T06:13:00.899Z,85.55
2022-12-25T06:15:29.459Z,85.22
2022-12-25T06:17:57.925Z,85.17
2022-12-25T06:20:26.556Z,84.95
2022-12-25T06:22:56.950Z,84.83
2022-12-25T06:25:26.132Z,85.06
2022-12-25T06:27:54.523Z,84.56
2022-12-25T06:30:23.539Z,84.94
2022-12-25T06:32:54.591Z,84.71
2022-12-25T06:35:23.721Z,84.69
2022-12-25T06:37:52.600Z,84.74
2022-12-25T06:40:23.018Z,84.98
2022-12-25T06:42:53.063Z,84.75
2022-12-25T06:45:21.507Z,84.89
2022-12-25T06:47:50.059Z,84.75
2022-12-25T06:50:19.001Z,84.66
2022-12-25T06:52:47.400Z,84.62
2022-12-25T06:55:16.072Z,84.99
2022-12-25T06:57:45.898Z,84.60
2022-12-25T07:00:15.814Z,85.10
2022-12-25T07:02:49.550Z,84.84
2022-12-25T07:05:18.345Z,84.86
2022-12-25T07:07:46.818Z,85.09
2022-12-25T07:10:15.399Z,85.25
2022-12-25T07:12:45.321Z,85.29
2022-12-25T07:15:13.753Z,85.18
2022-12-25T07:17:42.154Z,85.52
2022-12-25T07:20:11.378Z,85.38
2022-12-25T07:22:39.825Z,85.86
2022-12-25T07:25:09.545Z,85.49
2022-12-25T07:27:37.901Z,85.37
2022-12-25T07:30:09.990Z,85.61
2022-12-25T07:32:38.488Z,85.45
2022-12-25T07:35:07.670Z,84.89
2022-12-25T07:37:36.268Z,84.81
2022-12-25T07:40:05.655Z,85.56
2022-12-25T07:42:34.036Z,85.35
2022-12-25T07:45:02.366Z,84.93
2022-12-25T07:47:32.115Z,85.37
2022-12-25T07:50:00.578Z,84.89
2022-12-25T07:52:31.291Z,85.00
2022-12-25T07:55:00.758Z,85.11
2022-12-25T07:57:29.806Z,84.80
2022-12-25T07:59:58.193Z,84.94
2022-12-25T08:02:29.097Z,84.82
2022-12-25T08:04:59.628Z,84.66
2022-12-25T08:07:28.066Z,84.70
2022-12-25T08:09:56.472Z,84.53
2022-12-25T08:12:24.910Z,84.58
2022-12-25T08:14:53.385Z,84.91
2022-12-25T08:17:21.964Z,84.52
2022-12-25T08:19:50.346Z,84.72
2022-12-25T08:22:20.101Z,84.48
2022-12-25T08:24:48.901Z,84.67
2022-12-25T08:27:17.285Z,84.60
2022-12-25T08:29:45.890Z,84.47
2022-12-25T08:32:14.370Z,84.51
2022-12-25T08:34:42.907Z,84.26
2022-12-25T08:37:11.334Z,84.07
2022-12-25T08:39:41.201Z,84.27
2022-12-25T08:42:09.577Z,84.21
2022-12-25T08:44:39.568Z,84.38
2022-12-25T08:47:08.230Z,84.17
2022-12-25T08:49:36.841Z,84.53
2022-12-25T08:52:05.538Z,84.03
2022-12-25T08:54:36.586Z,83.53
2022-12-25T08:57:06.604Z,83.78
2022-12-25T08:59:35.294Z,83.76
2022-12-25T09:02:03.874Z,83.41
2022-12-25T09:04:32.417Z,83.42
2022-12-25T09:07:01.021Z,83.35
2022-12-25T09:09:29.913Z,83.32
2022-12-25T09:11:58.335Z,83.26
2022-12-25T09:14:28.031Z,83.24
2022-12-25T09:16:56.463Z,83.18
2022-12-25T09:19:25.187Z,83.25
2022-12-25T09:21:53.970Z,83.27
2022-12-25T09:24:22.881Z,82.83
2022-12-25T09:26:51.422Z,83.09
2022-12-25T09:29:19.896Z,83.01
2022-12-25T09:31:50.130Z,83.12
2022-12-25T09:34:19.210Z,83.37
2022-12-25T09:36:47.654Z,83.25
2022-12-25T09:39:16.125Z,82.85
2022-12-25T09:41:57.099Z,82.73
2022-12-25T09:44:30.100Z,82.85
2022-12-25T09:47:03.913Z,82.80
2022-12-25T09:49:42.109Z,82.73
2022-12-25T09:52:16.972Z,82.49
2022-12-25T09:54:56.021Z,81.78
2022-12-25T09:57:27.350Z,81.70
2022-12-25T09:59:57.168Z,81.67
2022-12-25T10:02:55.534Z,81.57
2022-12-25T10:05:48.459Z,81.12
2022-12-25T10:08:26.704Z,81.16
2022-12-25T10:11:06.396Z,81.52
2022-12-25T10:14:01.056Z,81.57
2022-12-25T10:16:39.771Z,81.44
2022-12-25T10:19:29.693Z,81.18
2022-12-25T10:22:03.323Z,80.96
2022-12-25T10:24:37.721Z,80.83
2022-12-25T10:27:16.336Z,80.89
2022-12-25T10:29:46.636Z,80.87
2022-12-25T10:32:15.464Z,80.63
2022-12-25T10:34:45.211Z,80.88
2022-12-25T10:37:15.267Z,80.64
2022-12-25T10:39:46.820Z,80.46
2022-12-25T10:42:40.548Z,79.99
2022-12-25T10:45:10.784Z,80.60
2022-12-25T10:47:42.720Z,80.55
2022-12-25T10:50:21.375Z,79.57
2022-12-25T10:52:57.926Z,79.85
2022-12-25T10:55:29.216Z,79.20
2022-12-25T10:57:58.982Z,79.53
2022-12-25T11:00:29.988Z,79.24
2022-12-25T11:02:59.542Z,79.11
2022-12-25T11:05:32.526Z,78.96
2022-12-25T11:08:03.525Z,78.53
2022-12-25T11:10:35.880Z,78.73
2022-12-25T11:13:07.845Z,78.32
2022-12-25T11:15:40.222Z,78.24
2022-12-25T11:18:22.029Z,78.46
2022-12-25T11:20:54.248Z,78.22
2022-12-25T11:23:26.620Z,78.39
2022-12-25T11:25:59.240Z,78.57
2022-12-25T11:28:30.158Z,78.53
2022-12-25T11:31:02.593Z,78.47
2022-12-25T11:33:36.857Z,78.45
2022-12-25T11:36:28.277Z,77.83
2022-12-25T11:38:57.358Z,78.18
2022-12-25T11:41:35.323Z,78.54
2022-12-25T11:44:20.137Z,77.96
2022-12-25T11:46:52.286Z,78.24
2022-12-25T11:49:22.515Z,78.55
2022-12-25T11:51:57.610Z,78.66
2022-12-25T11:54:33.173Z,78.37
2022-12-25T11:57:05.588Z,77.92
2022-12-25T11:59:42.414Z,78.35
2022-12-25T12:02:26.925Z,78.46
2022-12-25T12:05:09.681Z,78.51
2022-12-25T12:07:58.231Z,78.66
2022-12-25T12:10:38.613Z,78.53
2022-12-25T12:13:27.177Z,78.45
2022-12-25T12:15:55.889Z,78.97
2022-12-25T12:18:32.858Z,78.44
2022-12-25T12:21:05.516Z,78.10
2022-12-25T12:23:48.992Z,78.64
2022-12-25T12:26:21.433Z,78.97
2022-12-25T12:28:52.421Z,78.50
2022-12-25T12:31:21.257Z,78.44
2022-12-25T12:33:55.167Z,78.74
2022-12-25T12:36:35.790Z,78.83
2022-12-25T12:39:06.919Z,78.38
2022-12-25T12:41:47.337Z,78.83
2022-12-25T12:44:18.486Z,78.45
2022-12-25T12:46:55.501Z,78.43
2022-12-25T12:49:26.626Z,78.31
2022-12-25T12:52:06.874Z,78.98
2022-12-25T12:54:58.372Z,78.76
2022-12-25T12:57:32.771Z,78.48
2022-12-25T13:00:09.885Z,78.87
2022-12-25T13:03:07.408Z,78.52
2022-12-25T13:05:41.944Z,78.91
2022-12-25T13:08:33.365Z,78.73
2022-12-25T13:11:16.001Z,79.10
2022-12-25T13:13:47.461Z,79.02
2022-12-25T13:16:25.982Z,79.11
2022-12-25T13:18:57.123Z,79.44
2022-12-25T13:21:28.546Z,78.99
2022-12-25T13:24:01.813Z,79.00
2022-12-25T13:26:32.277Z,78.86
2022-12-25T13:29:02.002Z,78.61
2022-12-25T13:31:32.609Z,78.73
2022-12-25T13:34:06.818Z,79.04
2022-12-25T13:36:40.229Z,79.01
2022-12-25T13:39:14.310Z,79.10
2022-12-25T13:42:04.631Z,79.01
2022-12-25T13:44:44.498Z,78.95
2022-12-25T13:47:25.310Z,78.92
2022-12-25T13:49:56.387Z,78.96
2022-12-25T13:52:34.363Z,79.17
2022-12-25T13:55:05.722Z,79.29
2022-12-25T13:57:41.945Z,78.82
2022-12-25T14:00:21.477Z,79.04
2022-12-25T14:02:51.082Z,79.04
2022-12-25T14:05:30.649Z,79.71
2022-12-25T14:08:05.045Z,79.50
2022-12-25T14:10:39.157Z,80.06
2022-12-25T14:13:14.144Z,79.95
2022-12-25T14:15:45.009Z,79.93
2022-12-25T14:18:16.508Z,80.11
2022-12-25T14:21:00.306Z,80.23
2022-12-25T14:23:34.683Z,80.56
2022-12-25T14:26:03.359Z,80.15
2022-12-25T14:28:34.539Z,80.07
2022-12-25T14:31:05.075Z,80.23
2022-12-25T14:33:39.673Z,80.03
2022-12-25T14:36:12.222Z,79.83
2022-12-25T14:38:42.602Z,79.90
2022-12-25T14:41:33.309Z,80.08
2022-12-25T14:44:06.938Z,80.45
2022-12-25T14:46:37.267Z,80.56
2022-12-25T14:49:26.403Z,80.71
2022-12-25T14:51:54.872Z,80.31
2022-12-25T14:54:24.685Z,80.42
2022-12-25T14:56:56.293Z,80.89
2022-12-25T14:59:28.271Z,80.39
2022-12-25T15:02:01.019Z,80.95
2022-12-25T15:04:30.770Z,80.86
2022-12-25T15:07:07.183Z,82.00
2022-12-25T15:11:10.639Z,82.35
2022-12-25T15:13:39.033Z,82.38
2022-12-25T15:16:15.914Z,82.26
2022-12-25T15:18:47.615Z,82.15
2022-12-25T15:21:21.734Z,82.12
2022-12-25T15:23:50.278Z,82.29
2022-12-25T15:26:20.074Z,82.56
2022-12-25T15:28:48.765Z,82.04
2022-12-25T15:31:25.249Z,81.56
2022-12-25T15:33:54.540Z,81.74
2022-12-25T15:36:23.365Z,82.50
2022-12-25T15:38:52.621Z,81.62
2022-12-25T15:41:45.072Z,81.62
2022-12-25T15:44:15.435Z,82.47
2022-12-25T15:46:44.360Z,82.14
2022-12-25T15:49:13.569Z,82.20
2022-12-25T15:51:42.999Z,82.27
2022-12-25T15:54:11.989Z,81.53
2022-12-25T15:56:46.091Z,81.73
2022-12-25T15:59:16.035Z,82.35
2022-12-25T16:01:49.751Z,82.10
2022-12-25T16:04:18.802Z,82.04
2022-12-25T16:06:48.128Z,82.27
2022-12-25T16:09:20.081Z,82.46
2022-12-25T16:11:50.818Z,82.81
2022-12-25T16:14:20.570Z,82.92
2022-12-25T16:16:49.024Z,83.09
2022-12-25T16:19:18.739Z,83.42
2022-12-25T16:21:48.601Z,83.03
2022-12-25T16:24:17.364Z,83.36
2022-12-25T16:26:46.505Z,83.51
2022-12-25T16:29:16.352Z,83.52
2022-12-25T16:31:45.603Z,84.06
2022-12-25T16:34:14.238Z,83.66
2022-12-25T16:36:42.806Z,83.94
2022-12-25T16:39:11.284Z,84.20
2022-12-25T16:41:41.126Z,83.67
2022-12-25T16:44:11.166Z,83.95
2022-12-25T16:46:42.707Z,84.06
2022-12-25T16:49:11.182Z,83.35
2022-12-25T16:51:39.731Z,83.51
2022-12-25T16:54:09.602Z,83.90
2022-12-25T16:56:38.704Z,84.06
2022-12-25T16:59:08.421Z,84.61
2022-12-25T17:01:38.071Z,84.62
2022-12-25T17:04:08.417Z,84.31
2022-12-25T17:06:38.403Z,84.56
2022-12-25T17:09:07.634Z,84.67
2022-12-25T17:11:37.166Z,84.68
2022-12-25T17:14:06.907Z,84.67
2022-12-25T17:16:38.049Z,84.64
2022-12-25T17:19:16.432Z,84.79
2022-12-25T17:21:44.971Z,84.88
2022-12-25T17:24:13.579Z,85.12
2022-12-25T17:26:43.937Z,84.72
2022-12-25T17:29:17.152Z,85.35
2022-12-25T17:31:50.266Z,84.44
2022-12-25T17:34:20.391Z,84.60
2022-12-25T17:36:49.674Z,84.61
2022-12-25T17:39:19.047Z,84.63
2022-12-25T17:41:50.634Z,84.65
2022-12-25T17:44:21.053Z,84.65
2022-12-25T17:46:50.407Z,84.61
2022-12-25T17:49:24.396Z,84.65
2022-12-25T17:51:55.239Z,84.72
2022-12-25T17:54:25.416Z,84.99
2022-12-25T17:56:53.820Z,84.95
2022-12-25T17:59:28.609Z,85.31
2022-12-25T18:01:57.456Z,85.09
2022-12-25T18:04:29.687Z,85.12
2022-12-25T18:06:58.286Z,85.40
2022-12-25T18:09:28.372Z,85.72
2022-12-25T18:11:57.079Z,86.03
2022-12-25T18:14:25.972Z,86.06
2022-12-25T18:16:54.565Z,86.09
2022-12-25T18:19:23.848Z,85.86
2022-12-25T18:21:56.226Z,85.77
2022-12-25T18:24:25.133Z,85.78
2022-12-25T18:26:54.178Z,86.48
2022-12-25T18:29:22.717Z,86.58
2022-12-25T18:31:51.314Z,86.42
2022-12-25T18:34:19.962Z,86.31
2022-12-25T18:36:48.426Z,86.58
2022-12-25T18:39:18.621Z,86.71
2022-12-25T18:42:06.005Z,86.37
2022-12-25T18:44:34.475Z,86.54
2022-12-25T18:47:03.186Z,86.49
2022-12-25T18:49:31.634Z,86.60
2022-12-25T18:52:49.609Z,86.57
2022-12-25T18:54:50.391Z,86.76
2022-12-25T18:57:20.045Z,86.95
2022-12-25T18:59:48.496Z,86.91
2022-12-25T19:02:17.886Z,86.86
2022-12-25T19:04:47.646Z,87.01
2022-12-25T19:07:16.028Z,86.85
2022-12-25T19:09:45.034Z,86.84
2022-12-25T19:12:14.888Z,87.11
2022-12-25T19:14:47.846Z,87.18
2022-12-25T19:17:17.456Z,87.79
2022-12-25T19:19:48.024Z,87.60
2022-12-25T19:22:16.627Z,87.37
2022-12-25T19:24:48.044Z,87.99
2022-12-25T19:27:19.953Z,87.85
2022-12-25T19:29:48.742Z,88.18
2022-12-25T19:32:18.643Z,88.04
2022-12-25T19:34:47.413Z,88.37
2022-12-25T19:37:16.467Z,87.88
2022-12-25T19:39:46.968Z,88.07
2022-12-25T19:42:22.078Z,87.84
2022-12-25T19:44:50.544Z,87.82
2022-12-25T19:47:19.131Z,87.59
2022-12-25T19:49:52.694Z,87.88
2022-12-25T19:52:21.785Z,88.13
2022-12-25T19:54:54.073Z,87.85
2022-12-25T19:57:24.235Z,88.08
2022-12-25T19:59:52.685Z,87.79
2022-12-25T20:02:21.220Z,87.72
2022-12-25T20:04:51.210Z,87.61
2022-12-25T20:07:19.641Z,87.89
2022-12-25T20:09:48.354Z,87.98
2022-12-25T20:12:16.770Z,88.21
2022-12-25T20:14:46.806Z,88.15
2022-12-25T20:17:16.238Z,88.08
2022-12-25T20:19:44.850Z,88.06
2022-12-25T20:22:13.239Z,87.98
2022-12-25T20:24:41.633Z,87.63
2022-12-25T20:27:10.374Z,87.45
2022-12-25T20:29:39.153Z,87.87
2022-12-25T20:32:14.898Z,87.58
2022-12-25T20:34:43.599Z,88.00
2022-12-25T20:37:12.172Z,88.13
2022-12-25T20:39:40.740Z,87.73
2022-12-25T20:42:09.442Z,88.05
2022-12-25T20:44:39.265Z,87.78
2022-12-25T20:47:07.672Z,87.92
2022-12-25T20:49:38.125Z,87.81
2022-12-25T20:52:06.961Z,88.12
2022-12-25T20:54:35.929Z,87.37
2022-12-25T20:57:04.563Z,87.78
2022-12-25T20:59:37.427Z,87.27
2022-12-25T21:02:06.537Z,87.51
2022-12-25T21:04:36.740Z,87.67
2022-12-25T21:07:08.626Z,88.11
2022-12-25T21:09:37.002Z,87.93
2022-12-25T21:12:05.956Z,87.87
2022-12-25T21:14:34.805Z,88.15
2022-12-25T21:17:03.584Z,88.07
2022-12-25T21:19:32.089Z,88.25
2022-12-25T21:22:02.316Z,88.38
2022-12-25T21:24:30.863Z,87.73
2022-12-25T21:26:59.521Z,87.72
2022-12-25T21:29:28.039Z,87.67
2022-12-25T21:32:14.196Z,88.08
2022-12-25T21:34:42.834Z,87.92
2022-12-25T21:37:12.967Z,88.32
2022-12-25T21:39:41.759Z,88.53
2022-12-25T21:42:10.183Z,88.55
2022-12-25T21:44:38.648Z,88.41
2022-12-25T21:47:07.758Z,88.31
2022-12-25T21:49:53.453Z,88.49
2022-12-25T21:52:24.959Z,88.42
2022-12-25T21:54:54.029Z,88.71
2022-12-25T21:57:22.943Z,88.11
2022-12-25T21:59:51.365Z,88.64
2022-12-25T22:02:20.030Z,88.44
2022-12-25T22:04:48.583Z,88.55
2022-12-25T22:07:18.790Z,88.54
2022-12-25T22:09:50.677Z,88.66
2022-12-25T22:12:39.994Z,88.09
2022-12-25T22:15:11.122Z,88.04
2022-12-25T22:17:59.114Z,88.69
2022-12-25T22:20:31.292Z,88.67
2022-12-25T22:23:00.192Z,88.21
2022-12-25T22:25:30.608Z,88.34
2022-12-25T22:27:59.511Z,88.56
2022-12-25T22:30:30.828Z,88.94
2022-12-25T22:33:00.041Z,88.44
2022-12-25T22:35:28.542Z,89.00
2022-12-25T22:37:57.396Z,88.43
2022-12-25T22:40:25.790Z,88.44
2022-12-25T22:42:56.862Z,88.17
2022-12-25T22:45:25.404Z,88.63
2022-12-25T22:47:53.930Z,88.29
2022-12-25T22:50:22.482Z,88.12
2022-12-25T22:52:51.244Z,88.19
2022-12-25T22:55:20.692Z,88.18
2022-12-25T22:57:50.495Z,88.59
2022-12-25T23:00:20.435Z,88.66
2022-12-25T23:02:49.214Z,88.46
2022-12-25T23:05:17.918Z,87.73
2022-12-25T23:07:46.393Z,88.16
2022-12-25T23:10:14.884Z,87.95
2022-12-25T23:13:00.755Z,88.11
2022-12-25T23:15:31.717Z,88.06
2022-12-25T23:18:17.252Z,87.51
2022-12-25T23:21:03.225Z,87.46
2022-12-25T23:23:49.324Z,86.94
2022-12-25T23:26:20.389Z,87.47
2022-12-25T23:29:06.428Z,86.89
2022-12-25T23:31:39.967Z,87.11
2022-12-25T23:34:10.282Z,86.98
2022-12-25T23:36:38.819Z,86.81
2022-12-25T23:39:10.397Z,86.88
2022-12-25T23:41:39.635Z,87.25
2022-12-25T23:44:09.968Z,87.02
2022-12-25T23:46:40.726Z,87.31
2022-12-25T23:49:10.072Z,86.87
2022-12-25T23:51:43.047Z,87.07
2022-12-25T23:54:13.927Z,87.29
2022-12-25T23:56:43.675Z,86.66
2022-12-25T23:59:13.966Z,86.97
